Iselin, New Jersey
Current Conditions -  °F | °C
As of 9:15 PM on Saturday 25 Oct 2014 (Local Time) from KLDJ Reporting Station
Clear Clear  
Wind Chill: 65°   Ceiling: Unl
Heat Index: 65°   Visibility: 10mi
Dew Point: 47°   Wind: 0mph
Humidity: 52%   Direction: NA
Pressure: 29.65"   Gusts: NA
Location:  40.57°N, 74.32°W
Report Text: KLDJ 260115Z AUTO 00000KT 10SM CLR 18/08 A2965 RMK AO2 T01820083
Loading
Personal Weather Stations






























Interactive Weather Map
Tropical Storm Tracking
New forecast layout! Learn more

10-Day Weather Forecast

Advertisements
Track Severe Weather on mobile